Time;durP1;ratioP1;P1;durP2;ratioP2;P2;SDS_P1;SDS_P2;PMS_P1;PMS_P2;Temp;Humidity;BMP_temperature;BMP_pressure;BME280_temperature;BME280_humidity;BME280_pressure;Samples;Min_cycle;Max_cycle;Signal;HPM_P1;HPM_P2
2021/08/27 00:01:26;;;;;;;7.57;1.27;;;14.10;87.80;;;;;;5051028;28;20484;-75
2021/08/27 00:03:51;;;;;;;9.90;1.80;;;14.00;87.70;;;;;;5054733;28;20437;-77
2021/08/27 00:06:17;;;;;;;7.25;1.27;;;14.00;88.10;;;;;;5055766;28;20032;-77
2021/08/27 00:08:42;;;;;;;7.50;2.22;;;14.00;88.10;;;;;;5054678;28;20524;-75
2021/08/27 00:11:10;;;;;;;4.00;0.90;;;13.90;88.10;;;;;;5055928;28;20029;-77
2021/08/27 00:13:36;;;;;;;3.50;1.35;;;14.00;88.20;;;;;;5054827;28;20029;-77
2021/08/27 00:16:02;;;;;;;8.75;1.80;;;13.90;88.00;;;;;;5055675;28;20408;-76
2021/08/27 00:18:28;;;;;;;6.80;1.52;;;14.00;88.20;;;;;;5054592;28;20017;-77
2021/08/27 00:20:53;;;;;;;6.55;1.13;;;14.00;88.20;;;;;;5055958;28;20104;-77
2021/08/27 00:23:19;;;;;;;6.05;1.30;;;14.00;88.10;;;;;;5058872;28;20036;-75
2021/08/27 00:25:44;;;;;;;8.68;1.27;;;14.00;88.10;;;;;;5064425;28;20552;-76
2021/08/27 00:28:10;;;;;;;5.10;1.52;;;14.00;87.90;;;;;;5059069;28;20037;-76
2021/08/27 00:30:36;;;;;;;8.63;1.02;;;14.00;87.90;;;;;;5060921;28;20124;-76
2021/08/27 00:33:01;;;;;;;10.88;1.67;;;14.00;88.00;;;;;;5055675;28;20111;-77
2021/08/27 00:35:27;;;;;;;5.40;1.10;;;14.00;88.10;;;;;;5054500;28;20036;-77
2021/08/27 00:37:53;;;;;;;5.00;1.95;;;14.00;88.00;;;;;;5055494;28;20025;-76
2021/08/27 00:40:19;;;;;;;8.80;1.42;;;13.90;88.00;;;;;;5054185;28;20074;-76
2021/08/27 00:42:44;;;;;;;10.30;1.48;;;13.90;88.40;;;;;;5054141;28;20461;-76
2021/08/27 00:45:11;;;;;;;5.97;1.00;;;13.90;88.30;;;;;;5055571;28;20057;-76
2021/08/27 00:47:36;;;;;;;7.13;1.42;;;13.80;88.50;;;;;;5054283;28;20025;-76
2021/08/27 00:50:04;;;;;;;8.30;1.40;;;13.80;88.70;;;;;;5053878;28;20409;-77
2021/08/27 00:52:29;;;;;;;6.07;1.25;;;13.70;88.80;;;;;;5054172;28;20025;-77
2021/08/27 00:54:55;;;;;;;5.55;0.90;;;13.70;89.00;;;;;;5053984;28;20028;-77
2021/08/27 00:57:21;;;;;;;9.43;1.65;;;13.70;89.00;;;;;;5055287;28;20247;-77
2021/08/27 00:59:46;;;;;;;4.13;0.98;;;13.60;89.00;;;;;;5055634;28;20474;-77
2021/08/27 01:02:12;;;;;;;4.63;1.23;;;13.60;89.30;;;;;;5055648;28;20032;-76
2021/08/27 01:04:41;;;;;;;5.15;1.10;;;13.50;89.20;;;;;;5064966;28;20079;-77
2021/08/27 01:07:16;;;;;;;10.10;1.05;;;13.50;89.50;;;;;;5061022;28;20036;-76
2021/08/27 01:10:03;;;;;;;9.93;1.63;;;13.60;89.50;;;;;;5056435;28;20115;-77
2021/08/27 01:13:04;;;;;;;7.68;1.58;;;13.50;89.60;;;;;;5056990;28;20032;-77
2021/08/27 01:15:32;;;;;;;7.45;1.55;;;13.50;89.70;;;;;;5050128;28;20071;-76
2021/08/27 01:18:37;;;;;;;5.75;1.25;;;13.50;89.90;;;;;;5054782;28;20057;-76
2021/08/27 01:21:09;;;;;;;9.68;1.20;;;13.40;90.00;;;;;;5053024;28;20074;-75
2021/08/27 01:23:51;;;;;;;8.48;1.88;;;13.30;90.10;;;;;;5053186;28;20359;-75
2021/08/27 01:26:20;;;;;;;5.95;1.40;;;13.30;90.20;;;;;;5054078;28;20373;-75
2021/08/27 01:28:49;;;;;;;8.23;1.10;;;13.30;90.20;;;;;;5054581;28;20039;-75
2021/08/27 01:31:57;;;;;;;6.07;1.20;;;13.30;90.30;;;;;;5052763;28;20025;-76
2021/08/27 01:34:35;;;;;;;5.13;1.10;;;13.30;90.40;;;;;;5054071;28;20033;-76
2021/08/27 01:37:03;;;;;;;10.50;1.58;;;13.30;90.50;;;;;;5052966;28;20351;-75
2021/08/27 01:39:37;;;;;;;5.80;1.40;;;13.30;90.60;;;;;;5053041;28;20021;-75
2021/08/27 01:42:05;;;;;;;10.55;1.65;;;13.30;90.60;;;;;;5053102;28;20039;-75
2021/08/27 01:44:31;;;;;;;8.48;1.35;;;13.30;90.70;;;;;;5053014;28;20025;-76
2021/08/27 01:46:59;;;;;;;9.38;1.38;;;13.40;90.70;;;;;;5053844;28;20383;-76
2021/08/27 01:49:29;;;;;;;9.18;1.55;;;13.40;90.80;;;;;;5053871;28;20036;-75
2021/08/27 01:51:58;;;;;;;11.98;2.00;;;13.40;90.80;;;;;;5054160;28;20059;-75
2021/08/27 01:54:24;;;;;;;7.18;1.35;;;13.40;90.80;;;;;;5052127;28;20036;-75
2021/08/27 01:56:51;;;;;;;8.73;1.38;;;13.40;90.60;;;;;;5052629;28;20025;-76
2021/08/27 01:59:18;;;;;;;7.30;1.30;;;13.40;90.60;;;;;;5053414;28;20025;-75
2021/08/27 02:01:44;;;;;;;7.75;1.80;;;13.40;90.70;;;;;;5052552;28;20040;-76
2021/08/27 02:04:13;;;;;;;6.82;1.65;;;13.50;90.70;;;;;;5052356;28;20013;-76
2021/08/27 02:06:40;;;;;;;10.57;1.63;;;13.50;90.60;;;;;;5052412;28;20064;-77
2021/08/27 02:09:07;;;;;;;5.00;1.48;;;13.50;90.70;;;;;;5052231;28;20565;-75
2021/08/27 02:11:33;;;;;;;8.18;1.25;;;13.50;90.80;;;;;;5052422;28;20028;-76
2021/08/27 02:13:59;;;;;;;9.82;2.22;;;13.50;90.80;;;;;;5053470;28;20028;-76
2021/08/27 02:16:25;;;;;;;7.10;1.90;;;13.60;90.80;;;;;;5052505;28;20036;-75
2021/08/27 02:18:52;;;;;;;12.23;1.80;;;13.60;90.80;;;;;;5061063;28;20025;-75
2021/08/27 02:21:19;;;;;;;11.15;1.70;;;13.60;90.80;;;;;;5060459;28;20075;-76
2021/08/27 02:23:49;;;;;;;7.88;1.73;;;13.60;90.70;;;;;;5059335;28;20112;-75
2021/08/27 02:26:15;;;;;;;9.75;1.85;;;13.60;90.60;;;;;;5056586;28;20032;-75
2021/08/27 02:28:43;;;;;;;8.48;1.95;;;13.60;90.60;;;;;;5056768;28;20102;-76
2021/08/27 02:31:11;;;;;;;5.78;1.58;;;13.70;90.70;;;;;;5054955;28;20021;-75
2021/08/27 02:33:42;;;;;;;7.95;1.70;;;13.60;90.90;;;;;;5053605;28;20350;-75
2021/08/27 02:36:10;;;;;;;7.13;1.70;;;13.70;90.70;;;;;;5051985;28;20556;-76
2021/08/27 02:38:37;;;;;;;13.55;1.98;;;13.70;90.60;;;;;;5053140;28;20035;-76
2021/08/27 02:41:03;;;;;;;9.35;1.73;;;13.80;90.60;;;;;;5053762;28;20040;-76
2021/08/27 02:43:29;;;;;;;8.13;1.58;;;13.80;90.50;;;;;;5051967;28;20029;-74
2021/08/27 02:45:54;;;;;;;5.95;1.35;;;13.80;90.40;;;;;;5053391;28;20025;-76
2021/08/27 02:48:20;;;;;;;12.02;2.33;;;13.80;90.40;;;;;;5052184;28;20024;-75
2021/08/27 02:50:57;;;;;;;6.50;1.33;;;13.80;90.30;;;;;;5055252;28;20028;-74
2021/08/27 02:53:31;;;;;;;11.70;1.98;;;13.80;90.30;;;;;;5057656;28;20529;-75
2021/08/27 02:56:12;;;;;;;10.43;1.63;;;13.80;90.30;;;;;;5060930;28;20024;-74
2021/08/27 02:58:38;;;;;;;10.77;2.13;;;13.70;90.30;;;;;;5054764;28;20488;-76
2021/08/27 03:01:08;;;;;;;9.70;2.00;;;13.70;90.40;;;;;;5051763;28;20022;-76
2021/08/27 03:03:46;;;;;;;;;;;13.70;90.40;;;;;;5052407;28;20112;-76
2021/08/27 03:06:22;;;;;;;7.85;1.85;;;13.70;90.50;;;;;;5051572;28;20488;-76
2021/08/27 03:08:53;;;;;;;10.52;2.20;;;13.60;90.60;;;;;;5051845;28;20040;-76
2021/08/27 03:11:28;;;;;;;10.27;1.70;;;13.60;90.60;;;;;;5051663;28;20465;-76
2021/08/27 03:14:12;;;;;;;9.85;2.17;;;13.60;90.70;;;;;;5052525;28;20021;-76
2021/08/27 03:16:41;;;;;;;7.85;1.83;;;13.70;90.80;;;;;;5065970;28;20418;-76
2021/08/27 03:19:18;;;;;;;5.85;1.55;;;13.70;90.70;;;;;;5056885;28;20021;-77
2021/08/27 03:22:21;;;;;;;9.15;1.73;;;13.80;90.70;;;;;;5052556;28;20469;-75
2021/08/27 03:24:55;;;;;;;9.05;1.75;;;13.80;90.60;;;;;;5051095;28;20013;-76
2021/08/27 03:27:25;;;;;;;12.38;2.15;;;13.90;90.50;;;;;;5052320;28;20127;-75
2021/08/27 03:29:57;;;;;;;9.60;1.88;;;13.90;90.50;;;;;;5052400;28;20024;-76
2021/08/27 03:32:24;;;;;;;6.90;1.40;;;14.00;90.50;;;;;;5050843;28;20021;-75
2021/08/27 03:34:51;;;;;;;7.20;1.65;;;13.90;90.40;;;;;;5050969;28;20029;-75
2021/08/27 03:37:19;;;;;;;9.90;2.00;;;14.00;90.30;;;;;;5050575;28;20025;-76
2021/08/27 03:39:45;;;;;;;8.52;1.30;;;14.00;90.40;;;;;;5051092;28;20017;-76
2021/08/27 03:42:14;;;;;;;8.00;2.45;;;14.10;90.30;;;;;;5050980;28;20021;-76
2021/08/27 03:44:41;;;;;;;10.13;1.70;;;14.10;90.30;;;;;;5052118;28;20032;-76
2021/08/27 03:47:07;;;;;;;9.23;1.65;;;14.10;90.40;;;;;;5051725;28;20491;-75
2021/08/27 03:49:33;;;;;;;8.52;1.73;;;14.10;90.20;;;;;;5052018;28;20136;-76
2021/08/27 03:52:00;;;;;;;7.70;1.98;;;14.10;90.10;;;;;;5052195;28;20025;-76
2021/08/27 03:54:27;;;;;;;10.38;1.20;;;14.20;90.10;;;;;;5051993;28;20032;-76
2021/08/27 03:56:53;;;;;;;6.13;1.27;;;14.20;90.10;;;;;;5050771;28;20032;-76
2021/08/27 03:59:21;;;;;;;5.57;1.58;;;14.20;90.00;;;;;;5051557;28;20051;-76
2021/08/27 04:01:48;;;;;;;7.18;1.70;;;14.20;89.90;;;;;;5051980;28;20027;-76
2021/08/27 04:04:21;;;;;;;6.65;1.50;;;14.20;89.90;;;;;;5051609;28;20025;-75
2021/08/27 04:06:52;;;;;;;8.02;1.40;;;14.20;89.80;;;;;;5052110;28;20092;-76
2021/08/27 04:09:18;;;;;;;8.65;1.70;;;14.20;89.90;;;;;;5051657;28;20036;-75
2021/08/27 04:11:43;;;;;;;14.63;2.28;;;14.20;90.00;;;;;;5051331;28;20021;-75
2021/08/27 04:14:09;;;;;;;8.90;1.73;;;14.20;89.90;;;;;;5057946;28;20034;-75
2021/08/27 04:16:41;;;;;;;8.95;1.63;;;14.20;90.00;;;;;;5059357;28;20074;-75
2021/08/27 04:19:06;;;;;;;7.55;1.75;;;14.10;90.00;;;;;;5061425;28;20027;-75
2021/08/27 04:21:32;;;;;;;10.50;1.92;;;14.10;90.00;;;;;;5055253;28;20112;-75
2021/08/27 04:23:57;;;;;;;8.75;1.70;;;14.10;90.20;;;;;;5051813;28;20032;-76
2021/08/27 04:26:23;;;;;;;8.52;1.50;;;14.00;90.30;;;;;;5051454;28;20037;-75
2021/08/27 04:28:49;;;;;;;7.90;1.50;;;14.00;90.30;;;;;;5050933;28;20032;-76
2021/08/27 04:31:14;;;;;;;7.13;1.50;;;14.00;90.40;;;;;;5052085;28;20445;-74
2021/08/27 04:33:40;;;;;;;7.25;1.83;;;13.90;90.50;;;;;;5050693;28;20021;-75
2021/08/27 04:36:05;;;;;;;4.18;1.20;;;13.90;90.60;;;;;;5050746;28;20025;-74
2021/08/27 04:38:31;;;;;;;8.48;2.17;;;13.90;90.60;;;;;;5050575;28;20441;-76
2021/08/27 04:40:57;;;;;;;6.43;1.67;;;13.90;90.60;;;;;;5051836;28;20031;-76
2021/08/27 04:43:22;;;;;;;10.23;1.50;;;13.90;90.70;;;;;;5056295;28;20025;-75
2021/08/27 04:45:48;;;;;;;5.50;2.20;;;13.80;90.70;;;;;;5058133;28;20029;-74
2021/08/27 04:48:13;;;;;;;8.95;1.83;;;13.90;90.70;;;;;;5056549;28;20149;-75
2021/08/27 04:50:39;;;;;;;7.18;1.50;;;13.90;90.70;;;;;;5053889;28;20029;-76
2021/08/27 04:53:05;;;;;;;7.65;1.83;;;14.00;90.70;;;;;;5055321;28;20025;-76
2021/08/27 04:55:30;;;;;;;10.43;1.73;;;13.90;90.70;;;;;;5053873;28;20072;-75
2021/08/27 04:57:56;;;;;;;6.60;2.03;;;14.00;90.80;;;;;;5055375;28;20021;-75
2021/08/27 05:00:22;;;;;;;7.38;1.50;;;14.00;90.70;;;;;;5053929;28;20029;-76
2021/08/27 05:02:47;;;;;;;7.93;2.28;;;14.00;90.70;;;;;;5053855;28;20017;-76
2021/08/27 05:05:13;;;;;;;9.80;2.08;;;14.00;90.70;;;;;;5055101;28;20412;-76
2021/08/27 05:07:39;;;;;;;10.35;1.70;;;14.10;90.70;;;;;;5053623;28;20485;-75
2021/08/27 05:10:05;;;;;;;11.05;1.65;;;14.10;90.70;;;;;;5057794;28;20519;-75
2021/08/27 05:12:32;;;;;;;6.38;1.30;;;14.10;90.60;;;;;;5059713;28;20043;-76
2021/08/27 05:14:58;;;;;;;6.75;1.55;;;14.20;90.60;;;;;;5055322;28;20025;-76
2021/08/27 05:17:26;;;;;;;4.45;1.48;;;14.20;90.60;;;;;;5055265;28;20547;-74
2021/08/27 05:19:52;;;;;;;8.15;1.98;;;14.20;90.60;;;;;;5064779;28;20033;-75
2021/08/27 05:22:18;;;;;;;8.45;1.75;;;14.30;90.50;;;;;;5068525;28;20041;-75
2021/08/27 05:24:44;;;;;;;8.25;1.90;;;14.30;90.60;;;;;;5053429;28;20040;-76
2021/08/27 05:27:09;;;;;;;9.85;1.60;;;14.30;90.50;;;;;;5053163;28;20123;-75
2021/08/27 05:29:35;;;;;;;6.35;1.85;;;14.40;90.40;;;;;;5054233;28;20108;-75
2021/08/27 05:32:01;;;;;;;5.72;1.42;;;14.40;90.40;;;;;;5054546;28;20392;-74
2021/08/27 05:34:26;;;;;;;6.75;1.25;;;14.50;90.30;;;;;;5053028;28;20021;-74
2021/08/27 05:36:52;;;;;;;10.63;1.30;;;14.50;90.30;;;;;;5052961;28;20027;-75
2021/08/27 05:39:17;;;;;;;5.65;1.40;;;14.60;90.20;;;;;;5052933;28;20440;-75
2021/08/27 05:41:44;;;;;;;10.02;2.00;;;14.70;90.20;;;;;;5052832;28;20462;-76
2021/08/27 05:44:10;;;;;;;6.78;1.67;;;14.80;90.10;;;;;;5053112;28;20051;-75
2021/08/27 05:46:36;;;;;;;9.48;2.85;;;14.80;90.10;;;;;;5052530;28;20064;-75
2021/08/27 05:49:01;;;;;;;8.18;1.73;;;14.80;90.00;;;;;;5054179;28;20032;-75
2021/08/27 05:51:27;;;;;;;6.75;1.10;;;14.90;90.00;;;;;;5053632;28;20079;-74
2021/08/27 05:53:53;;;;;;;6.43;1.50;;;14.90;89.90;;;;;;5052758;28;20478;-75
2021/08/27 05:56:18;;;;;;;7.30;1.83;;;15.00;90.00;;;;;;5054171;28;20127;-75
2021/08/27 05:58:47;;;;;;;4.68;1.27;;;15.00;90.00;;;;;;5052158;28;20112;-75
2021/08/27 06:01:13;;;;;;;3.20;1.17;;;15.10;90.00;;;;;;5053704;28;20104;-74
2021/08/27 06:03:38;;;;;;;8.18;2.42;;;15.20;89.90;;;;;;5052636;28;20048;-75
2021/08/27 06:06:04;;;;;;;6.97;1.52;;;15.20;89.60;;;;;;5053681;28;20079;-75
2021/08/27 06:08:30;;;;;;;8.27;1.50;;;15.20;89.60;;;;;;5055234;28;20024;-74
2021/08/27 06:10:55;;;;;;;7.97;1.80;;;15.30;89.40;;;;;;5060603;28;20006;-74
2021/08/27 06:13:21;;;;;;;10.27;2.67;;;15.30;89.30;;;;;;5049262;28;20100;-75
2021/08/27 06:15:47;;;;;;;6.38;1.98;;;15.40;89.30;;;;;;5051651;28;20043;-73
2021/08/27 06:18:12;;;;;;;5.60;1.73;;;15.40;89.00;;;;;;5043459;28;20021;-74
2021/08/27 06:20:38;;;;;;;8.13;1.75;;;15.40;88.70;;;;;;5043181;28;20582;-75
2021/08/27 06:23:04;;;;;;;9.00;2.00;;;15.40;88.80;;;;;;5040992;28;20057;-74
2021/08/27 06:25:29;;;;;;;3.75;1.00;;;15.40;88.60;;;;;;5042918;28;20021;-75
2021/08/27 06:27:55;;;;;;;6.05;1.50;;;15.50;88.10;;;;;;5044482;28;20055;-75
2021/08/27 06:30:21;;;;;;;6.55;1.23;;;15.50;88.60;;;;;;5041102;28;20025;-74
2021/08/27 06:32:46;;;;;;;5.38;1.55;;;15.50;88.60;;;;;;5042780;28;20393;-75
2021/08/27 06:35:12;;;;;;;3.88;1.10;;;15.60;88.70;;;;;;5048310;28;20382;-74
2021/08/27 06:40:22;;;;;;;2.35;0.90;;;15.60;88.10;;;;;;5044391;28;20516;-75
2021/08/27 06:42:48;;;;;;;7.35;2.08;;;15.60;86.60;;;;;;5033501;28;20030;-76
2021/08/27 06:45:13;;;;;;;8.43;2.55;;;15.70;87.50;;;;;;5033423;28;20021;-76
2021/08/27 06:47:39;;;;;;;11.68;1.73;;;15.80;87.60;;;;;;5031792;28;20493;-75
2021/08/27 06:50:05;;;;;;;4.13;0.80;;;16.00;86.80;;;;;;5031611;28;20462;-74
2021/08/27 06:52:31;;;;;;;8.35;1.60;;;16.10;85.30;;;;;;5032680;28;20018;-75
2021/08/27 06:54:58;;;;;;;7.57;2.53;;;16.30;85.30;;;;;;5031564;28;20021;-75
2021/08/27 06:57:23;;;;;;;8.27;1.45;;;16.40;85.10;;;;;;5033710;28;20025;-74
2021/08/27 06:59:49;;;;;;;5.10;1.05;;;16.50;84.30;;;;;;5051688;28;20025;-75
2021/08/27 07:02:14;;;;;;;4.78;1.23;;;16.50;84.60;;;;;;5066836;28;20025;-75
2021/08/27 07:04:43;;;;;;;9.77;1.80;;;16.50;84.60;;;;;;5052258;28;20421;-75
2021/08/27 07:07:12;;;;;;;7.03;1.52;;;16.50;84.50;;;;;;5032896;28;20029;-74
2021/08/27 07:09:37;;;;;;;7.00;1.55;;;16.60;84.60;;;;;;5032837;28;20029;-76
2021/08/27 07:12:03;;;;;;;7.63;1.70;;;16.70;84.90;;;;;;5044714;28;20025;-75
2021/08/27 07:14:29;;;;;;;5.82;1.30;;;16.90;84.60;;;;;;5052351;28;20029;-75
2021/08/27 07:16:58;;;;;;;4.93;1.35;;;17.10;83.10;;;;;;5051316;28;20028;-76
2021/08/27 07:19:24;;;;;;;8.55;1.92;;;17.20;83.40;;;;;;5052599;28;20025;-75
2021/08/27 07:21:49;;;;;;;6.70;1.23;;;17.20;81.90;;;;;;5036494;28;20104;-75
2021/08/27 07:24:15;;;;;;;6.18;1.90;;;17.30;82.10;;;;;;5036731;28;20049;-75
2021/08/27 07:26:40;;;;;;;9.68;1.90;;;17.30;81.90;;;;;;5044074;28;20041;-74
2021/08/27 07:29:06;;;;;;;7.43;1.70;;;17.40;81.90;;;;;;5031778;28;20422;-75
2021/08/27 07:31:31;;;;;;;8.00;1.58;;;17.60;81.40;;;;;;5032794;28;20034;-76
2021/08/27 07:33:57;;;;;;;4.50;1.08;;;17.90;80.80;;;;;;5031365;28;20156;-76
2021/08/27 07:36:23;;;;;;;7.82;1.40;;;18.10;78.60;;;;;;5031065;28;20474;-75
2021/08/27 07:38:48;;;;;;;6.88;1.77;;;18.10;78.00;;;;;;5032092;28;20040;-78
2021/08/27 07:41:14;;;;;;;5.20;1.40;;;18.20;77.90;;;;;;5042893;28;20029;-75
2021/08/27 07:43:39;;;;;;;6.15;1.25;;;18.30;77.50;;;;;;5050734;28;20389;-75
2021/08/27 07:46:05;;;;;;;5.22;1.77;;;18.30;77.00;;;;;;5051016;28;20033;-75
2021/08/27 07:48:30;;;;;;;6.07;1.77;;;18.40;76.80;;;;;;5051550;28;20035;-77
2021/08/27 07:50:56;;;;;;;5.68;1.65;;;18.40;76.90;;;;;;5046637;28;20037;-76
2021/08/27 07:53:23;;;;;;;7.70;1.20;;;18.60;77.00;;;;;;5049551;28;20021;-75
2021/08/27 07:55:49;;;;;;;4.07;1.10;;;18.50;76.00;;;;;;5054591;28;20024;-76
2021/08/27 07:58:18;;;;;;;8.27;2.08;;;18.50;76.40;;;;;;5051404;28;20055;-75
2021/08/27 08:00:43;;;;;;;15.48;2.55;;;18.40;77.10;;;;;;5047049;28;20037;-76
2021/08/27 08:03:09;;;;;;;6.90;1.75;;;18.30;77.00;;;;;;5045774;28;20033;-78
2021/08/27 08:05:34;;;;;;;7.50;2.65;;;18.20;77.40;;;;;;5056950;28;20025;-76
2021/08/27 08:08:01;;;;;;;5.28;1.30;;;18.00;77.90;;;;;;5056971;28;20021;-75
2021/08/27 08:10:27;;;;;;;4.70;1.30;;;17.90;79.00;;;;;;5062415;28;20021;-75
2021/08/27 08:12:53;;;;;;;6.53;1.55;;;17.80;79.70;;;;;;5043620;28;20075;-75
2021/08/27 08:15:21;;;;;;;5.57;1.75;;;17.90;80.80;;;;;;5032575;28;20026;-75
2021/08/27 08:17:46;;;;;;;5.47;1.20;;;17.90;80.30;;;;;;5032110;28;20022;-75
2021/08/27 08:20:13;;;;;;;5.72;1.33;;;17.90;79.90;;;;;;5032025;28;20021;-76
2021/08/27 08:22:38;;;;;;;6.70;1.40;;;17.90;79.90;;;;;;5056804;28;20044;-75
2021/08/27 08:25:04;;;;;;;6.13;1.15;;;17.90;79.50;;;;;;5060131;28;20087;-75
2021/08/27 08:27:34;;;;;;;12.07;1.50;;;18.10;79.30;;;;;;5059951;28;20627;-76
2021/08/27 08:30:01;;;;;;;8.80;1.23;;;18.40;78.70;;;;;;5054794;28;20029;-76
2021/08/27 08:32:27;;;;;;;5.72;1.60;;;18.70;77.10;;;;;;5037520;28;20048;-75
2021/08/27 08:34:53;;;;;;;4.55;1.52;;;19.00;76.80;;;;;;5034208;28;20021;-74
2021/08/27 08:37:18;;;;;;;6.47;1.80;;;19.30;75.00;;;;;;5033848;28;20048;-75
2021/08/27 08:39:44;;;;;;;5.35;1.60;;;19.40;74.60;;;;;;5034054;28;20017;-76
2021/08/27 08:42:10;;;;;;;4.65;1.08;;;19.50;74.00;;;;;;5044361;28;20485;-75
2021/08/27 08:44:35;;;;;;;7.28;2.00;;;19.70;73.40;;;;;;5036164;28;20025;-75
2021/08/27 08:47:03;;;;;;;7.60;1.83;;;19.90;72.20;;;;;;5034839;28;20108;-75
2021/08/27 08:49:29;;;;;;;6.28;1.83;;;20.10;72.40;;;;;;5034003;28;20092;-75
2021/08/27 08:51:56;;;;;;;5.68;1.40;;;20.30;71.70;;;;;;5034004;28;20466;-75
2021/08/27 08:54:24;;;;;;;15.15;2.60;;;20.50;71.60;;;;;;5048430;28;20032;-76
2021/08/27 08:56:50;;;;;;;5.57;2.00;;;20.60;70.60;;;;;;5054865;28;20478;-75
2021/08/27 08:59:18;;;;;;;4.18;1.20;;;20.50;70.20;;;;;;5054048;28;20025;-76
2021/08/27 09:02:10;;;;;;;11.88;1.58;;;20.50;70.70;;;;;;5055102;28;20025;-79
2021/08/27 09:04:35;;;;;;;6.43;1.45;;;20.30;70.80;;;;;;5051499;28;20045;-78
2021/08/27 09:07:01;;;;;;;9.07;2.10;;;20.10;70.70;;;;;;5052934;28;20029;-76
2021/08/27 09:09:33;;;;;;;4.78;1.67;;;20.10;71.60;;;;;;5053337;28;20032;-76
2021/08/27 09:11:58;;;;;;;9.30;1.52;;;20.30;71.60;;;;;;5055122;28;20100;-75
2021/08/27 09:14:29;;;;;;;6.22;1.65;;;20.60;71.50;;;;;;5034821;28;20126;-75
2021/08/27 09:17:03;;;;;;;8.85;2.33;;;20.90;69.80;;;;;;5034515;28;20037;-75
2021/08/27 09:19:51;;;;;;;5.80;1.40;;;21.00;69.50;;;;;;5034974;28;20022;-75
2021/08/27 09:22:17;;;;;;;6.68;1.60;;;21.10;67.50;;;;;;5038662;28;20021;-76
2021/08/27 09:24:44;;;;;;;4.80;1.20;;;21.00;68.60;;;;;;5054119;28;20462;-76
2021/08/27 09:27:09;;;;;;;4.65;1.13;;;20.90;70.10;;;;;;5057491;28;20069;-76
2021/08/27 09:29:38;;;;;;;5.07;1.27;;;20.90;72.90;;;;;;5062803;28;20039;-76
2021/08/27 09:32:27;;;;;;;6.10;1.90;;;21.20;67.80;;;;;;5049823;28;20536;-76
2021/08/27 09:35:02;;;;;;;7.57;1.25;;;21.50;70.50;;;;;;5032252;28;20029;-75
2021/08/27 09:37:36;;;;;;;6.95;1.77;;;21.70;65.60;;;;;;5033180;28;20025;-76
2021/08/27 09:40:05;;;;;;;5.13;1.40;;;21.60;65.60;;;;;;5033315;28;20114;-76
2021/08/27 09:42:49;;;;;;;9.48;1.75;;;21.50;71.90;;;;;;5040385;28;20045;-76
2021/08/27 09:45:15;;;;;;;3.75;1.40;;;21.20;68.60;;;;;;5054214;28;20021;-77
2021/08/27 09:48:12;;;;;;;8.95;1.55;;;20.90;73.20;;;;;;5052139;28;20474;-76
2021/08/27 09:50:39;;;;;;;7.03;1.88;;;20.90;66.70;;;;;;5052382;28;20025;-75
2021/08/27 09:53:13;;;;;;;6.70;1.30;;;21.00;66.70;;;;;;5052926;28;20072;-75
2021/08/27 09:56:05;;;;;;;6.85;1.77;;;21.40;70.10;;;;;;5053322;28;20122;-77
2021/08/27 09:58:50;;;;;;;4.15;1.27;;;21.80;66.90;;;;;;5055031;28;20433;-75
2021/08/27 10:01:16;;;;;;;5.65;1.42;;;22.20;70.40;;;;;;5059153;28;20381;-76
2021/08/27 10:03:42;;;;;;;5.38;1.50;;;22.30;62.90;;;;;;5059306;28;20025;-75
2021/08/27 10:06:13;;;;;;;7.88;1.75;;;22.20;66.30;;;;;;5054894;28;20485;-75
2021/08/27 10:08:38;;;;;;;6.03;1.65;;;22.00;61.80;;;;;;5052755;28;20115;-75
2021/08/27 10:11:27;;;;;;;5.65;1.70;;;21.80;64.10;;;;;;5053944;28;20121;-75
2021/08/27 10:13:53;;;;;;;6.78;1.42;;;22.00;66.40;;;;;;5056850;28;20025;-75
2021/08/27 10:16:20;;;;;;;9.93;2.08;;;21.90;64.60;;;;;;5058284;28;20025;-74
2021/08/27 10:18:45;;;;;;;8.82;2.45;;;21.70;69.30;;;;;;5054036;28;20013;-71
2021/08/27 10:21:12;;;;;;;6.95;1.40;;;21.30;69.00;;;;;;5053621;28;20429;-73
2021/08/27 10:23:38;;;;;;;7.85;2.42;;;20.50;72.10;;;;;;5052005;28;20044;-72
2021/08/27 10:26:30;;;;;;;4.50;1.20;;;19.90;75.50;;;;;;5053416;28;20119;-74
2021/08/27 10:29:03;;;;;;;7.95;1.60;;;19.40;78.70;;;;;;5051730;28;20048;-74
2021/08/27 10:31:39;;;;;;;5.30;1.30;;;19.10;79.80;;;;;;5054255;28;20021;-73
2021/08/27 10:34:05;;;;;;;8.52;1.42;;;18.90;80.40;;;;;;5057025;28;20075;-74
2021/08/27 10:36:30;;;;;;;8.75;2.05;;;18.90;81.90;;;;;;5056257;28;20032;-74
2021/08/27 10:38:57;;;;;;;5.32;1.58;;;18.80;83.70;;;;;;5052348;28;20040;-73
2021/08/27 10:41:35;;;;;;;7.45;1.50;;;19.00;84.50;;;;;;5053060;28;20142;-73
2021/08/27 10:44:07;;;;;;;5.93;1.70;;;19.20;83.90;;;;;;5051761;28;20025;-74
2021/08/27 10:46:45;;;;;;;6.22;1.52;;;19.40;82.30;;;;;;5051130;28;20365;-74
2021/08/27 10:49:15;;;;;;;8.70;1.60;;;19.60;80.90;;;;;;5053143;28;20021;-74
2021/08/27 10:51:43;;;;;;;8.60;1.75;;;19.80;80.70;;;;;;5051590;28;20048;-74
2021/08/27 10:54:11;;;;;;;4.50;1.30;;;20.00;80.30;;;;;;5052789;28;20146;-74
2021/08/27 10:56:55;;;;;;;4.05;1.30;;;20.10;78.80;;;;;;5052911;28;20529;-73
2021/08/27 10:59:23;;;;;;;9.10;1.70;;;20.20;79.40;;;;;;5051707;28;20469;-74
2021/08/27 11:01:58;;;;;;;6.57;1.92;;;20.50;80.10;;;;;;5052704;28;20017;-74
2021/08/27 11:04:29;;;;;;;8.20;1.58;;;20.60;79.70;;;;;;5052444;28;20366;-74
2021/08/27 11:07:03;;;;;;;6.50;1.65;;;20.90;78.00;;;;;;5053007;28;20032;-74
2021/08/27 11:09:30;;;;;;;4.90;1.02;;;21.40;77.20;;;;;;5051357;28;20025;-73
2021/08/27 11:12:16;;;;;;;5.15;1.23;;;21.90;75.10;;;;;;5052354;28;20029;-74
2021/08/27 11:14:47;;;;;;;5.45;0.95;;;22.30;73.10;;;;;;5052625;28;20032;-74
2021/08/27 11:17:13;;;;;;;6.97;1.58;;;22.40;72.90;;;;;;5052515;28;20071;-74
2021/08/27 11:19:55;;;;;;;7.05;1.55;;;22.30;68.80;;;;;;5052558;28;20021;-74
2021/08/27 11:22:24;;;;;;;6.72;1.67;;;21.90;70.10;;;;;;5053117;28;20095;-75
2021/08/27 11:25:09;;;;;;;8.00;1.60;;;21.80;71.50;;;;;;5052838;28;20067;-75
2021/08/27 11:27:36;;;;;;;4.05;1.17;;;21.80;70.80;;;;;;5053953;28;20146;-74
2021/08/27 11:30:35;;;;;;;7.65;1.42;;;22.00;72.10;;;;;;5060681;28;20065;-75
2021/08/27 11:33:01;;;;;;;4.90;1.27;;;22.20;71.30;;;;;;5040521;28;20142;-75
2021/08/27 11:35:28;;;;;;;3.35;0.75;;;22.40;73.60;;;;;;5052402;28;20535;-75
2021/08/27 11:38:05;;;;;;;4.82;1.38;;;22.70;71.60;;;;;;5052001;28;20096;-74
2021/08/27 11:40:32;;;;;;;6.85;1.25;;;22.90;70.30;;;;;;5050966;28;20438;-76
2021/08/27 11:42:58;;;;;;;5.00;1.15;;;23.00;71.30;;;;;;5050740;28;20021;-76
2021/08/27 11:45:26;;;;;;;5.93;1.40;;;23.00;66.70;;;;;;5051868;28;20032;-76
2021/08/27 11:48:05;;;;;;;8.20;1.95;;;23.00;68.70;;;;;;5050819;28;20359;-75
2021/08/27 11:50:39;;;;;;;6.45;1.60;;;22.80;68.30;;;;;;5050783;28;20082;-75
2021/08/27 11:53:06;;;;;;;6.65;1.20;;;22.60;68.20;;;;;;5050827;28;20029;-76
2021/08/27 11:55:46;;;;;;;5.03;1.40;;;22.50;67.40;;;;;;5050749;28;20087;-76
2021/08/27 11:58:12;;;;;;;6.55;1.60;;;22.50;72.90;;;;;;5052173;28;20358;-76
2021/08/27 12:00:42;;;;;;;9.55;1.80;;;22.60;65.90;;;;;;5055154;28;20017;-75
2021/08/27 12:03:11;;;;;;;7.78;2.50;;;22.60;66.00;;;;;;5057324;28;20021;-74
2021/08/27 12:05:37;;;;;;;7.53;1.63;;;22.50;63.90;;;;;;5059328;28;20025;-74
2021/08/27 12:08:05;;;;;;;11.90;2.17;;;22.40;67.20;;;;;;5058533;28;20029;-75
2021/08/27 12:10:33;;;;;;;6.65;1.92;;;22.60;68.20;;;;;;5054615;28;20032;-74
2021/08/27 12:13:00;;;;;;;10.10;2.03;;;23.00;68.90;;;;;;5055781;28;20029;-76
2021/08/27 12:15:31;;;;;;;7.82;1.95;;;23.00;62.80;;;;;;5054470;28;20025;-76
2021/08/27 12:18:01;;;;;;;8.98;1.65;;;23.10;68.60;;;;;;5055733;28;20071;-77
2021/08/27 12:20:48;;;;;;;5.93;1.48;;;23.40;66.40;;;;;;5054182;28;20043;-75
2021/08/27 12:23:21;;;;;;;6.32;1.63;;;23.60;66.40;;;;;;5054175;28;20078;-76
2021/08/27 12:26:08;;;;;;;9.25;2.15;;;23.70;65.70;;;;;;5054095;28;20469;-75
2021/08/27 12:28:39;;;;;;;8.57;2.03;;;23.60;65.20;;;;;;5055643;28;20124;-74
2021/08/27 12:31:11;;;;;;;6.13;1.85;;;23.40;65.70;;;;;;5055496;28;20138;-73
2021/08/27 12:33:39;;;;;;;11.50;2.97;;;23.40;63.10;;;;;;5055255;28;20108;-74
2021/08/27 12:36:06;;;;;;;8.45;1.77;;;23.50;66.70;;;;;;5053926;28;20041;-76
2021/08/27 12:38:32;;;;;;;6.85;1.80;;;23.40;62.00;;;;;;5053995;28;20373;-76
2021/08/27 12:41:18;;;;;;;8.43;1.83;;;23.20;62.20;;;;;;5053964;28;20017;-74
2021/08/27 12:43:45;;;;;;;9.48;1.95;;;22.90;63.50;;;;;;5055424;28;20025;-73
2021/08/27 12:46:31;;;;;;;8.13;2.00;;;22.60;66.80;;;;;;5052225;28;20064;-73
2021/08/27 12:49:19;;;;;;;8.10;2.30;;;22.80;69.40;;;;;;5054510;28;20033;-74
2021/08/27 12:51:47;;;;;;;6.30;1.48;;;23.20;60.50;;;;;;5055150;28;20032;-73
2021/08/27 12:54:16;;;;;;;5.95;1.50;;;23.40;66.90;;;;;;5056435;28;20028;-73
2021/08/27 12:56:42;;;;;;;5.72;1.50;;;23.60;69.50;;;;;;5035648;28;20064;-74
2021/08/27 12:59:18;;;;;;;9.70;2.38;;;23.80;70.80;;;;;;5034663;28;20053;-76